Time;durP1;ratioP1;P1;durP2;ratioP2;P2;SDS_P1;SDS_P2;PMS_P1;PMS_P2;Temp;Humidity;BMP_temperature;BMP_pressure;BME280_temperature;BME280_humidity;BME280_pressure;Samples;Min_cycle;Max_cycle;Signal;HPM_P1;HPM_P2
2021/08/10 00:00:37;;;;;;;4.87;2.07;;;16.20;99.90;;;;;;5073702;28;20229;-61
2021/08/10 00:03:05;;;;;;;2.90;2.07;;;16.10;99.90;;;;;;5073814;28;20205;-61
2021/08/10 00:05:32;;;;;;;4.23;2.30;;;16.10;99.90;;;;;;5073499;28;20212;-61
2021/08/10 00:07:59;;;;;;;3.53;2.10;;;16.00;99.90;;;;;;5073714;28;20209;-61
2021/08/10 00:10:25;;;;;;;2.60;2.07;;;16.00;99.90;;;;;;5073590;28;20395;-61
2021/08/10 00:12:52;;;;;;;4.33;2.40;;;16.00;99.90;;;;;;5073494;28;20211;-61
2021/08/10 00:15:19;;;;;;;3.13;2.30;;;16.00;99.90;;;;;;5072892;28;20209;-61
2021/08/10 00:17:45;;;;;;;3.70;2.33;;;15.90;99.90;;;;;;5073806;28;20212;-61
2021/08/10 00:20:14;;;;;;;4.00;2.07;;;15.90;99.90;;;;;;5072872;28;20275;-61
2021/08/10 00:22:41;;;;;;;4.23;2.20;;;15.80;99.90;;;;;;5073124;28;20209;-61
2021/08/10 00:25:08;;;;;;;5.57;2.27;;;15.80;99.90;;;;;;5072708;28;20672;-61
2021/08/10 00:27:35;;;;;;;4.00;2.13;;;15.80;99.90;;;;;;5072933;28;20262;-61
2021/08/10 00:30:02;;;;;;;3.63;2.20;;;15.70;99.90;;;;;;5072828;28;20239;-61
2021/08/10 00:32:29;;;;;;;2.40;2.00;;;15.70;99.90;;;;;;5072760;28;20215;-61
2021/08/10 00:34:55;;;;;;;2.80;2.20;;;15.70;99.90;;;;;;5072402;28;20730;-61
2021/08/10 00:37:23;;;;;;;4.57;2.00;;;15.70;99.90;;;;;;5073199;28;20204;-61
2021/08/10 00:39:50;;;;;;;4.77;2.10;;;15.70;99.90;;;;;;5072602;28;20225;-61
2021/08/10 00:42:17;;;;;;;6.00;2.60;;;15.60;99.90;;;;;;5072618;28;20205;-61
2021/08/10 00:44:44;;;;;;;2.83;2.03;;;15.60;99.90;;;;;;5072434;28;20209;-61
2021/08/10 00:47:10;;;;;;;5.00;2.10;;;15.60;99.90;;;;;;5072619;28;20201;-61
2021/08/10 00:49:37;;;;;;;3.90;2.10;;;15.50;99.90;;;;;;5072347;28;20233;-62
2021/08/10 00:52:05;;;;;;;3.37;1.97;;;15.50;99.90;;;;;;5072741;28;20338;-61
2021/08/10 00:54:33;;;;;;;2.30;1.90;;;15.40;99.90;;;;;;5072381;28;20212;-61
2021/08/10 00:57:00;;;;;;;4.53;2.20;;;15.40;99.90;;;;;;5072297;28;20262;-62
2021/08/10 00:59:27;;;;;;;2.47;2.00;;;15.40;99.90;;;;;;5072128;28;20231;-61
2021/08/10 01:01:54;;;;;;;4.30;1.93;;;15.30;99.90;;;;;;5071726;28;20221;-62
2021/08/10 01:04:20;;;;;;;4.40;2.07;;;15.30;99.90;;;;;;5072552;28;20472;-61
2021/08/10 01:07:05;;;;;;;4.17;2.07;;;15.30;99.90;;;;;;5072743;28;20211;-62
2021/08/10 01:09:40;;;;;;;5.33;2.20;;;15.30;99.90;;;;;;5072803;28;20271;-61
2021/08/10 01:12:10;;;;;;;3.13;2.00;;;15.30;99.90;;;;;;5073055;28;20205;-61
2021/08/10 01:14:45;;;;;;;3.63;2.13;;;15.30;99.90;;;;;;5072657;28;20300;-61
2021/08/10 01:17:19;;;;;;;4.10;2.10;;;15.30;99.90;;;;;;5073357;28;20204;-61
2021/08/10 01:20:21;;;;;;;3.17;1.90;;;15.30;99.90;;;;;;5072750;28;20734;-62
2021/08/10 01:22:51;;;;;;;4.73;2.10;;;15.30;99.90;;;;;;5061049;28;20201;-62
2021/08/10 01:25:32;;;;;;;4.47;2.03;;;15.30;99.90;;;;;;5072256;28;20564;-62
2021/08/10 01:28:14;;;;;;;4.17;2.50;;;15.30;99.90;;;;;;5072114;28;20208;-61
2021/08/10 01:30:50;;;;;;;3.27;2.17;;;15.30;99.90;;;;;;5071873;28;20255;-61
2021/08/10 01:33:19;;;;;;;3.00;2.23;;;15.30;99.90;;;;;;5072218;28;20616;-61
2021/08/10 01:35:47;;;;;;;4.57;2.50;;;15.40;99.90;;;;;;5072382;28;20236;-61
2021/08/10 01:38:15;;;;;;;5.57;2.47;;;15.30;99.90;;;;;;5072661;28;20212;-62
2021/08/10 01:40:44;;;;;;;5.23;2.50;;;15.30;99.90;;;;;;5071653;28;20739;-61
2021/08/10 01:43:11;;;;;;;3.20;2.00;;;15.30;99.90;;;;;;5072177;28;20215;-61
2021/08/10 01:45:38;;;;;;;2.33;2.07;;;15.30;99.90;;;;;;5072067;28;20205;-61
2021/08/10 01:48:07;;;;;;;6.73;2.20;;;15.30;99.90;;;;;;5072387;28;20529;-61
2021/08/10 01:50:36;;;;;;;4.50;2.20;;;15.20;99.90;;;;;;5073200;28;20221;-61
2021/08/10 01:53:03;;;;;;;3.97;2.13;;;15.20;99.90;;;;;;5072795;28;20201;-61
2021/08/10 01:55:31;;;;;;;3.53;2.10;;;15.10;99.90;;;;;;5072637;28;20205;-61
2021/08/10 01:57:59;;;;;;;2.93;2.27;;;15.10;99.90;;;;;;5072510;28;20686;-62
2021/08/10 02:00:26;;;;;;;4.27;2.20;;;15.10;99.90;;;;;;5072332;28;20271;-61
2021/08/10 02:02:54;;;;;;;3.50;2.00;;;15.10;99.90;;;;;;5072174;28;20235;-61
2021/08/10 02:05:22;;;;;;;2.30;1.80;;;15.10;99.90;;;;;;5071716;28;20210;-61
2021/08/10 02:07:50;;;;;;;2.53;2.07;;;15.10;99.90;;;;;;5072588;28;20580;-61
2021/08/10 02:10:18;;;;;;;2.30;2.10;;;15.00;99.90;;;;;;5072188;28;20228;-61
2021/08/10 02:12:45;;;;;;;2.90;1.90;;;14.90;99.90;;;;;;5071757;28;20215;-61
2021/08/10 02:15:12;;;;;;;4.73;2.20;;;14.90;99.90;;;;;;5071598;28;20208;-61
2021/08/10 02:17:39;;;;;;;5.30;2.40;;;14.90;99.90;;;;;;5071503;28;20201;-61
2021/08/10 02:20:07;;;;;;;3.30;2.30;;;14.90;99.90;;;;;;5071795;28;20235;-61
2021/08/10 02:22:34;;;;;;;3.73;1.90;;;14.90;99.90;;;;;;5071456;28;20231;-61
2021/08/10 02:25:06;;;;;;;5.53;2.20;;;14.90;99.90;;;;;;5071075;28;20216;-61
2021/08/10 02:27:39;;;;;;;5.33;2.37;;;14.90;99.90;;;;;;5071583;28;20209;-61
2021/08/10 02:30:09;;;;;;;3.73;2.47;;;14.90;99.90;;;;;;5073431;28;20239;-60
2021/08/10 02:32:37;;;;;;;3.23;2.03;;;14.90;99.90;;;;;;5071796;28;20201;-61
2021/08/10 02:35:07;;;;;;;3.00;2.17;;;14.90;99.90;;;;;;5071368;28;20213;-61
2021/08/10 02:37:35;;;;;;;2.97;2.03;;;14.90;99.90;;;;;;5071173;28;20200;-62
2021/08/10 02:40:08;;;;;;;4.23;2.27;;;14.90;99.90;;;;;;5071194;28;20255;-62
2021/08/10 02:42:36;;;;;;;4.23;2.27;;;15.00;99.90;;;;;;5070671;28;20225;-61
2021/08/10 02:45:04;;;;;;;3.33;2.10;;;15.00;99.90;;;;;;5070582;28;20201;-61
2021/08/10 02:47:31;;;;;;;3.50;2.20;;;15.00;99.90;;;;;;5070667;28;20208;-61
2021/08/10 02:49:58;;;;;;;4.37;2.73;;;15.00;99.90;;;;;;5070527;28;20228;-61
2021/08/10 02:52:25;;;;;;;3.73;2.30;;;15.00;99.90;;;;;;5070761;28;20598;-61
2021/08/10 02:54:52;;;;;;;5.37;2.50;;;14.90;99.90;;;;;;5070365;28;20553;-62
2021/08/10 02:57:26;;;;;;;4.23;2.30;;;14.90;99.90;;;;;;5070944;28;20201;-61
2021/08/10 02:59:57;;;;;;;3.37;2.30;;;15.00;99.90;;;;;;5070743;28;20225;-61
2021/08/10 03:02:27;;;;;;;5.33;2.30;;;15.10;99.90;;;;;;5072083;28;20255;-61
2021/08/10 03:04:57;;;;;;;3.00;2.13;;;15.10;99.90;;;;;;5073090;28;20201;-61
2021/08/10 03:07:25;;;;;;;3.97;2.57;;;15.10;99.90;;;;;;5073245;28;20216;-61
2021/08/10 03:09:56;;;;;;;3.37;2.00;;;15.10;99.90;;;;;;5071681;28;20221;-61
2021/08/10 03:12:28;;;;;;;4.50;2.40;;;15.10;99.90;;;;;;5071324;28;20262;-61
2021/08/10 03:14:57;;;;;;;2.60;2.00;;;15.00;99.90;;;;;;5077222;28;20240;-62
2021/08/10 03:17:27;;;;;;;3.00;2.27;;;14.90;99.90;;;;;;5079848;28;20209;-62
2021/08/10 03:19:57;;;;;;;4.97;2.40;;;14.90;99.90;;;;;;5079891;28;20398;-61
2021/08/10 03:22:26;;;;;;;5.60;2.77;;;14.90;99.90;;;;;;5076158;28;20231;-62
2021/08/10 03:24:54;;;;;;;7.10;2.57;;;14.90;99.90;;;;;;5071228;28;20209;-61
2021/08/10 03:27:25;;;;;;;4.20;2.57;;;14.90;99.90;;;;;;5074667;28;20216;-62
2021/08/10 03:29:53;;;;;;;2.70;2.50;;;14.80;99.90;;;;;;5100004;22;20232;-61
2021/08/10 03:32:21;;;;;;;6.97;2.27;;;14.80;99.90;;;;;;5095861;28;20277;-60
2021/08/10 03:34:48;;;;;;;4.23;2.40;;;14.80;99.90;;;;;;5094192;28;20210;-60
2021/08/10 03:37:15;;;;;;;5.47;2.50;;;14.80;99.90;;;;;;5093978;28;20234;-60
2021/08/10 03:39:44;;;;;;;4.07;2.50;;;14.90;99.90;;;;;;5093729;28;20302;-60
2021/08/10 03:42:11;;;;;;;3.30;2.50;;;14.80;99.90;;;;;;5093622;28;20235;-60
2021/08/10 03:44:42;;;;;;;4.07;2.50;;;14.70;99.90;;;;;;5093939;28;20205;-60
2021/08/10 03:47:09;;;;;;;5.27;2.90;;;14.70;99.90;;;;;;5094150;28;20212;-60
2021/08/10 03:49:37;;;;;;;3.00;2.40;;;14.70;99.90;;;;;;5093779;28;20204;-60
2021/08/10 03:52:05;;;;;;;5.07;2.93;;;14.70;99.90;;;;;;5093434;28;20226;-60
2021/08/10 03:54:32;;;;;;;4.73;2.70;;;14.70;99.90;;;;;;5093482;28;20226;-60
2021/08/10 03:57:00;;;;;;;4.07;2.50;;;14.70;99.90;;;;;;5093578;28;20204;-60
2021/08/10 03:59:28;;;;;;;3.77;2.53;;;14.80;99.90;;;;;;5093420;28;20227;-61
2021/08/10 04:01:57;;;;;;;4.57;2.63;;;14.90;99.90;;;;;;5093280;28;20235;-60
2021/08/10 04:04:25;;;;;;;5.33;2.70;;;15.00;99.90;;;;;;5093162;28;20204;-61
2021/08/10 04:06:51;;;;;;;4.37;3.13;;;15.00;99.90;;;;;;5093222;28;20675;-61
2021/08/10 04:09:21;;;;;;;3.50;2.40;;;15.10;99.90;;;;;;5093068;28;20265;-61
2021/08/10 04:11:48;;;;;;;3.17;2.37;;;15.00;99.90;;;;;;5092990;28;20224;-61
2021/08/10 04:14:16;;;;;;;4.80;2.60;;;15.00;99.90;;;;;;5093019;28;20212;-60
2021/08/10 04:16:49;;;;;;;8.20;2.90;;;14.90;99.90;;;;;;5093092;28;20208;-61
2021/08/10 04:19:20;;;;;;;6.53;2.50;;;14.90;99.90;;;;;;5092936;28;20204;-61
2021/08/10 04:21:47;;;;;;;4.10;2.60;;;14.90;99.90;;;;;;5092629;28;20584;-61
2021/08/10 04:24:13;;;;;;;4.07;2.67;;;15.00;99.90;;;;;;5092828;28;20211;-61
2021/08/10 04:26:40;;;;;;;4.53;2.50;;;15.10;99.90;;;;;;5092945;28;20208;-61
2021/08/10 04:29:07;;;;;;;2.80;2.40;;;15.10;99.90;;;;;;5093046;28;20612;-61
2021/08/10 04:31:34;;;;;;;3.00;2.60;;;15.30;99.90;;;;;;5092579;28;20228;-61
2021/08/10 04:34:00;;;;;;;5.10;2.60;;;15.40;99.90;;;;;;5092628;28;20208;-61
2021/08/10 04:36:28;;;;;;;4.70;2.37;;;15.50;99.90;;;;;;5092296;28;20262;-61
2021/08/10 04:38:55;;;;;;;7.73;3.10;;;15.60;99.90;;;;;;5092606;28;20217;-61
2021/08/10 04:41:22;;;;;;;4.97;3.53;;;15.70;99.90;;;;;;5092413;28;20232;-60
2021/08/10 04:43:49;;;;;;;5.40;2.70;;;15.80;99.90;;;;;;5092318;28;20299;-61
2021/08/10 04:46:15;;;;;;;3.47;2.20;;;15.90;99.90;;;;;;5092568;28;20204;-61
2021/08/10 04:48:42;;;;;;;4.50;2.70;;;16.00;99.90;;;;;;5092233;28;20261;-61
2021/08/10 04:51:09;;;;;;;3.40;2.40;;;16.10;99.90;;;;;;5092526;28;20224;-61
2021/08/10 04:53:37;;;;;;;3.27;2.40;;;16.10;99.90;;;;;;5092330;28;20212;-61
2021/08/10 04:56:04;;;;;;;3.37;2.27;;;16.20;99.90;;;;;;5092300;28;20204;-60
2021/08/10 04:58:31;;;;;;;3.73;2.43;;;16.30;99.90;;;;;;5092180;28;20211;-61
2021/08/10 05:00:58;;;;;;;2.70;2.33;;;16.30;99.90;;;;;;5092015;28;20228;-61
2021/08/10 05:03:24;;;;;;;4.23;2.80;;;16.30;99.90;;;;;;5092058;28;20220;-61
2021/08/10 05:05:51;;;;;;;4.37;3.00;;;16.30;99.90;;;;;;5092096;28;20675;-61
2021/08/10 05:08:18;;;;;;;4.17;2.73;;;16.30;99.90;;;;;;5092288;28;20208;-61
2021/08/10 05:10:46;;;;;;;6.43;2.37;;;16.40;99.90;;;;;;5092732;28;20224;-61
2021/08/10 05:13:13;;;;;;;3.80;2.20;;;16.50;99.90;;;;;;5091943;28;20660;-60
2021/08/10 05:15:39;;;;;;;5.63;2.30;;;16.60;99.90;;;;;;5092026;28;20227;-61
2021/08/10 05:18:06;;;;;;;5.03;2.47;;;16.60;99.90;;;;;;5092175;28;20212;-61
2021/08/10 05:20:33;;;;;;;4.97;2.37;;;16.60;99.90;;;;;;5092020;28;20707;-61
2021/08/10 05:22:59;;;;;;;3.73;2.37;;;16.60;99.90;;;;;;5091800;28;20632;-61
2021/08/10 05:25:26;;;;;;;5.60;2.60;;;16.60;99.90;;;;;;5092051;28;20298;-61
2021/08/10 05:27:54;;;;;;;2.60;2.10;;;16.60;99.90;;;;;;5091978;28;20724;-61
2021/08/10 05:30:21;;;;;;;4.53;2.50;;;16.70;99.90;;;;;;5092346;28;20243;-61
2021/08/10 05:32:48;;;;;;;3.47;2.57;;;16.80;99.90;;;;;;5091711;28;20577;-61
2021/08/10 05:35:14;;;;;;;3.43;2.67;;;17.00;99.90;;;;;;5091492;28;20599;-61
2021/08/10 05:37:41;;;;;;;4.00;2.47;;;17.10;99.90;;;;;;5091299;28;20672;-61
2021/08/10 05:40:09;;;;;;;4.50;2.50;;;17.40;99.90;;;;;;5091396;28;20642;-61
2021/08/10 05:42:36;;;;;;;5.93;2.70;;;17.50;99.90;;;;;;5091327;28;20228;-61
2021/08/10 05:45:05;;;;;;;4.10;2.47;;;17.60;99.90;;;;;;5091061;28;20208;-62
2021/08/10 05:47:32;;;;;;;7.70;2.63;;;17.80;99.90;;;;;;5091271;28;20230;-61
2021/08/10 05:49:58;;;;;;;5.97;2.78;;;17.90;99.90;;;;;;5090930;28;20224;-61
2021/08/10 05:52:25;;;;;;;6.60;2.97;;;17.90;99.90;;;;;;5091099;28;20736;-61
2021/08/10 05:54:52;;;;;;;3.13;2.33;;;18.10;99.90;;;;;;5091093;28;20208;-61
2021/08/10 05:57:18;;;;;;;5.00;3.00;;;18.20;99.90;;;;;;5091282;28;20208;-61
2021/08/10 05:59:45;;;;;;;6.30;2.80;;;18.30;99.90;;;;;;5090761;28;20553;-61
2021/08/10 06:02:13;;;;;;;4.00;2.97;;;18.60;99.90;;;;;;5090944;28;20718;-61
2021/08/10 06:04:40;;;;;;;3.92;2.88;;;18.70;99.90;;;;;;5090910;28;20205;-61
2021/08/10 06:07:07;;;;;;;8.30;3.60;;;18.90;99.90;;;;;;5090989;28;20581;-61
2021/08/10 06:09:33;;;;;;;4.50;3.25;;;19.10;99.90;;;;;;5091012;28;20631;-61
2021/08/10 06:12:00;;;;;;;4.38;2.60;;;19.20;99.90;;;;;;5090914;28;20310;-61
2021/08/10 06:14:28;;;;;;;7.38;3.03;;;19.20;99.90;;;;;;5090908;28;20584;-61
2021/08/10 06:16:54;;;;;;;4.00;2.65;;;19.10;99.90;;;;;;5091168;28;20204;-61
2021/08/10 06:19:22;;;;;;;2.92;2.45;;;19.20;99.90;;;;;;5090929;28;20334;-61
2021/08/10 06:21:51;;;;;;;4.22;2.20;;;19.50;99.90;;;;;;5090966;28;20231;-61
2021/08/10 06:24:18;;;;;;;6.55;2.50;;;19.70;99.90;;;;;;5090622;28;20816;-61
2021/08/10 06:26:45;;;;;;;2.65;2.05;;;20.00;99.90;;;;;;5090640;28;20235;-60
2021/08/10 06:29:11;;;;;;;4.38;2.15;;;20.30;99.90;;;;;;5090836;28;20619;-61
2021/08/10 06:31:38;;;;;;;2.88;2.08;;;20.40;99.90;;;;;;5090742;28;20690;-61
2021/08/10 06:34:05;;;;;;;2.28;2.00;;;20.70;99.90;;;;;;5090670;28;20208;-61
2021/08/10 06:36:33;;;;;;;3.97;2.53;;;20.90;99.90;;;;;;5090824;28;20216;-62
2021/08/10 06:38:59;;;;;;;2.47;2.15;;;21.00;99.90;;;;;;5090819;28;20208;-61
2021/08/10 06:41:26;;;;;;;3.70;2.40;;;21.10;99.90;;;;;;5090595;28;20601;-61
2021/08/10 06:43:53;;;;;;;3.17;2.10;;;21.20;99.90;;;;;;5090455;28;20235;-61
2021/08/10 06:46:20;;;;;;;5.22;2.30;;;21.30;99.90;;;;;;5090942;28;20200;-61
2021/08/10 06:48:46;;;;;;;3.53;2.10;;;21.50;99.90;;;;;;5091182;28;20227;-61
2021/08/10 06:51:14;;;;;;;6.03;2.35;;;22.00;99.90;;;;;;5090866;28;20251;-61
2021/08/10 06:53:42;;;;;;;4.68;2.80;;;22.30;99.90;;;;;;5091074;28;20231;-61
2021/08/10 06:56:08;;;;;;;3.20;2.22;;;22.60;99.90;;;;;;5090809;28;20216;-61
2021/08/10 06:58:35;;;;;;;3.50;2.10;;;23.20;99.90;;;;;;5090765;28;20247;-61
2021/08/10 07:01:02;;;;;;;4.35;2.35;;;24.20;99.90;;;;;;5092310;28;20236;-61
2021/08/10 07:03:28;;;;;;;3.60;2.20;;;25.30;99.90;;;;;;5094229;28;20708;-61
2021/08/10 07:05:55;;;;;;;2.95;1.80;;;26.30;99.90;;;;;;5094427;28;20630;-62
2021/08/10 07:08:22;;;;;;;3.90;2.22;;;27.10;99.90;;;;;;5094236;28;20699;-62
2021/08/10 07:10:50;;;;;;;3.67;2.15;;;27.80;99.90;;;;;;5094360;28;20253;-62
2021/08/10 07:13:16;;;;;;;3.10;1.98;;;29.00;99.90;;;;;;5094140;28;20621;-62
2021/08/10 07:15:43;;;;;;;5.28;1.92;;;30.30;97.00;;;;;;5094265;28;20215;-62
2021/08/10 07:18:10;;;;;;;2.50;1.80;;;31.20;93.40;;;;;;5094094;28;20210;-62
2021/08/10 07:20:37;;;;;;;5.38;2.10;;;31.30;91.20;;;;;;5094071;28;20224;-61
2021/08/10 07:23:03;;;;;;;3.15;2.30;;;30.70;90.60;;;;;;5093814;28;20289;-61
2021/08/10 07:25:30;;;;;;;3.80;2.38;;;29.60;91.60;;;;;;5094073;28;20215;-61
2021/08/10 07:27:58;;;;;;;2.92;1.70;;;28.70;93.00;;;;;;5093971;28;20235;-62
2021/08/10 07:30:25;;;;;;;2.63;1.77;;;27.80;94.90;;;;;;5093909;28;20619;-62
2021/08/10 07:32:51;;;;;;;2.67;1.88;;;27.00;96.30;;;;;;5093997;28;20211;-61
2021/08/10 07:35:18;;;;;;;5.03;1.98;;;26.40;97.50;;;;;;5093675;28;20208;-61
2021/08/10 07:37:45;;;;;;;5.05;2.17;;;25.90;98.90;;;;;;5093677;28;20204;-61
2021/08/10 07:40:13;;;;;;;6.30;1.90;;;25.50;99.90;;;;;;5093688;28;20651;-61
2021/08/10 07:42:40;;;;;;;4.20;1.90;;;25.30;99.90;;;;;;5093787;28;20223;-61
2021/08/10 07:45:09;;;;;;;2.80;1.90;;;25.30;99.90;;;;;;5093608;28;20203;-62
2021/08/10 07:47:36;;;;;;;4.07;2.70;;;26.10;99.90;;;;;;5093502;28;20204;-62
2021/08/10 07:50:03;;;;;;;12.02;2.30;;;26.80;99.90;;;;;;5093410;28;20228;-62
2021/08/10 07:52:30;;;;;;;3.47;2.03;;;27.30;98.00;;;;;;5093504;28;20204;-63
2021/08/10 07:54:57;;;;;;;3.92;2.45;;;27.50;97.20;;;;;;5093521;28;20215;-62
2021/08/10 07:57:23;;;;;;;7.18;2.25;;;27.70;97.10;;;;;;5093738;28;20208;-62
2021/08/10 07:59:50;;;;;;;5.13;2.40;;;28.00;96.70;;;;;;5093334;28;20233;-62
2021/08/10 08:02:18;;;;;;;3.17;2.20;;;28.20;96.10;;;;;;5093410;28;20671;-62
2021/08/10 08:04:45;;;;;;;3.30;2.08;;;28.30;95.60;;;;;;5093058;28;20208;-63
2021/08/10 08:07:11;;;;;;;3.05;2.00;;;28.60;95.20;;;;;;5093537;28;20622;-62
2021/08/10 08:09:38;;;;;;;2.42;1.75;;;29.00;91.80;;;;;;5093247;28;20204;-62
2021/08/10 08:12:06;;;;;;;3.08;1.77;;;29.60;90.10;;;;;;5092688;28;20204;-62
2021/08/10 08:14:32;;;;;;;5.25;2.67;;;30.20;86.60;;;;;;5092998;28;20210;-62
2021/08/10 08:16:59;;;;;;;4.10;1.77;;;30.70;84.70;;;;;;5093210;28;20204;-61
2021/08/10 08:19:29;;;;;;;3.15;1.80;;;31.70;81.80;;;;;;5092891;28;20591;-62
2021/08/10 08:21:56;;;;;;;2.10;1.70;;;33.20;77.00;;;;;;5093206;28;20320;-61
2021/08/10 08:24:22;;;;;;;3.25;1.58;;;34.60;71.10;;;;;;5093227;28;20228;-62
2021/08/10 08:26:49;;;;;;;3.97;1.70;;;35.10;67.00;;;;;;5093197;28;20204;-61
2021/08/10 08:29:16;;;;;;;3.63;1.65;;;35.30;64.50;;;;;;5092958;28;20212;-62
2021/08/10 08:31:42;;;;;;;3.33;1.60;;;35.10;64.30;;;;;;5092621;28;20240;-62
2021/08/10 08:34:09;;;;;;;3.78;2.15;;;34.80;62.70;;;;;;5092842;28;20200;-62
2021/08/10 08:36:37;;;;;;;4.18;1.67;;;34.50;63.20;;;;;;5093065;28;20200;-62
2021/08/10 08:39:04;;;;;;;3.50;1.83;;;34.00;64.40;;;;;;5092844;28;20904;-62
2021/08/10 08:41:31;;;;;;;2.40;1.50;;;33.50;66.20;;;;;;5092803;28;20235;-62
2021/08/10 08:43:57;;;;;;;2.88;1.92;;;33.00;66.50;;;;;;5092537;28;20220;-62
2021/08/10 08:46:24;;;;;;;3.67;1.92;;;32.70;67.40;;;;;;5092808;28;20692;-61
2021/08/10 08:48:52;;;;;;;5.47;1.80;;;32.30;67.30;;;;;;5092523;28;20204;-62
2021/08/10 08:51:24;;;;;;;3.35;1.60;;;31.90;67.70;;;;;;5092541;28;20224;-61
2021/08/10 08:53:53;;;;;;;4.35;2.00;;;31.60;68.60;;;;;;5092217;28;20219;-61
2021/08/10 08:56:21;;;;;;;5.03;1.80;;;31.30;70.50;;;;;;5092594;28;20298;-62
2021/08/10 08:58:48;;;;;;;5.28;2.05;;;31.10;70.40;;;;;;5092082;28;20204;-62
2021/08/10 09:01:15;;;;;;;3.35;1.65;;;30.90;71.20;;;;;;5092135;28;20232;-61
2021/08/10 09:03:42;;;;;;;4.03;1.75;;;30.70;71.80;;;;;;5092090;28;20231;-62
2021/08/10 09:06:08;;;;;;;5.43;2.15;;;30.50;71.60;;;;;;5092238;28;20208;-61
2021/08/10 09:08:39;;;;;;;2.63;1.75;;;30.30;73.30;;;;;;5092642;28;20251;-61
2021/08/10 09:11:10;;;;;;;4.40;2.03;;;30.10;73.70;;;;;;5092164;28;20227;-61
2021/08/10 09:13:40;;;;;;;4.40;2.30;;;30.00;73.20;;;;;;5091863;28;20204;-61
2021/08/10 09:16:08;;;;;;;5.65;1.70;;;29.90;73.40;;;;;;5092190;28;20415;-62
2021/08/10 09:18:37;;;;;;;3.78;1.80;;;29.60;70.80;;;;;;5091781;28;20216;-61
2021/08/10 09:21:08;;;;;;;3.95;1.73;;;29.30;70.40;;;;;;5092215;28;20224;-61
2021/08/10 09:23:45;;;;;;;2.97;1.70;;;29.10;72.70;;;;;;5090862;28;20220;-62
2021/08/10 09:26:15;;;;;;;4.32;1.75;;;28.90;74.00;;;;;;5091931;28;20189;-61
2021/08/10 09:28:42;;;;;;;3.08;1.65;;;28.80;75.90;;;;;;5091816;28;20242;-61
2021/08/10 09:31:36;;;;;;;3.13;1.55;;;28.80;74.00;;;;;;5104998;22;20231;-58
2021/08/10 09:34:05;;;;;;;3.13;1.75;;;28.80;73.10;;;;;;5091343;28;20599;-58
2021/08/10 09:36:32;;;;;;;5.97;1.88;;;28.80;73.60;;;;;;5091522;28;20200;-57
2021/08/10 09:38:58;;;;;;;3.47;1.58;;;28.80;74.00;;;;;;5091270;28;20619;-58
2021/08/10 09:41:28;;;;;;;3.08;1.60;;;28.80;74.00;;;;;;5091454;28;20219;-58
2021/08/10 09:44:12;;;;;;;3.25;1.85;;;28.80;73.50;;;;;;5091473;28;20231;-58
2021/08/10 09:46:45;;;;;;;2.83;1.55;;;28.80;74.00;;;;;;5091316;28;20249;-58
2021/08/10 09:49:12;;;;;;;2.88;1.77;;;28.80;73.50;;;;;;5091579;28;20232;-57
2021/08/10 09:51:42;;;;;;;2.00;1.48;;;28.90;73.10;;;;;;5091395;28;20296;-57
2021/08/10 09:54:11;;;;;;;5.03;2.17;;;29.00;72.80;;;;;;5091225;28;20204;-59
2021/08/10 09:56:49;;;;;;;3.90;1.70;;;29.10;72.90;;;;;;5091348;28;20291;-59
2021/08/10 09:59:17;;;;;;;4.97;1.98;;;29.20;72.60;;;;;;5090904;28;20200;-59
2021/08/10 10:01:45;;;;;;;5.15;2.30;;;29.20;71.90;;;;;;5090882;28;20229;-59
2021/08/10 10:04:15;;;;;;;2.72;1.48;;;29.30;72.00;;;;;;5090919;28;20224;-58
2021/08/10 10:06:42;;;;;;;5.07;1.88;;;29.40;72.00;;;;;;5091279;28;20204;-56
2021/08/10 10:09:10;;;;;;;2.28;1.70;;;29.30;71.40;;;;;;5091381;28;20204;-58
2021/08/10 10:11:39;;;;;;;7.72;2.67;;;29.30;71.60;;;;;;5091397;28;20776;-59
2021/08/10 10:14:09;;;;;;;2.97;1.80;;;29.20;72.20;;;;;;5091121;28;20212;-59
2021/08/10 10:16:37;;;;;;;2.40;1.60;;;29.10;72.70;;;;;;5091701;28;20554;-59
2021/08/10 10:19:08;;;;;;;3.53;1.70;;;29.20;72.60;;;;;;5091104;28;20215;-59
2021/08/10 10:21:36;;;;;;;3.28;2.10;;;29.20;72.70;;;;;;5091437;28;20255;-58
2021/08/10 10:24:04;;;;;;;4.55;1.58;;;29.30;73.30;;;;;;5090692;28;20319;-58
2021/08/10 10:26:33;;;;;;;3.25;1.98;;;29.40;72.40;;;;;;5090805;28;20630;-57
2021/08/10 10:29:00;;;;;;;3.15;1.85;;;29.50;72.10;;;;;;5090759;28;20204;-58
2021/08/10 10:31:28;;;;;;;2.03;1.75;;;29.50;73.10;;;;;;5090832;28;20236;-57
2021/08/10 10:33:57;;;;;;;5.40;1.88;;;29.50;73.10;;;;;;5090860;28;20211;-58
2021/08/10 10:36:24;;;;;;;5.78;2.17;;;29.50;72.80;;;;;;5094902;28;20212;-57
2021/08/10 10:38:54;;;;;;;4.43;2.05;;;29.30;73.10;;;;;;5094751;28;20672;-57
2021/08/10 10:41:23;;;;;;;4.15;3.00;;;29.40;73.40;;;;;;5095534;28;20224;-57
2021/08/10 10:43:53;;;;;;;4.25;2.45;;;29.50;73.70;;;;;;5095064;28;20313;-57
2021/08/10 10:46:26;;;;;;;4.25;1.80;;;29.50;73.10;;;;;;5084848;28;20197;-59
2021/08/10 10:48:54;;;;;;;3.55;1.70;;;29.60;72.90;;;;;;5074363;28;20211;-59
2021/08/10 10:51:27;;;;;;;2.97;1.90;;;29.70;73.50;;;;;;5074068;28;20229;-59
2021/08/10 10:53:54;;;;;;;2.45;1.90;;;29.80;72.30;;;;;;5074356;28;20254;-59
2021/08/10 10:56:34;;;;;;;4.40;2.63;;;29.80;72.90;;;;;;5073788;28;20270;-58
2021/08/10 10:59:27;;;;;;;10.07;4.55;;;29.80;73.10;;;;;;5074029;28;20204;-59
2021/08/10 11:01:54;;;;;;;5.15;2.10;;;29.90;72.40;;;;;;5073999;28;20228;-60
2021/08/10 11:04:22;;;;;;;4.35;2.00;;;30.20;71.80;;;;;;5074213;28;20439;-60
2021/08/10 11:06:50;;;;;;;6.38;2.28;;;30.30;70.50;;;;;;5074466;28;20205;-60
2021/08/10 11:09:57;;;;;;;3.80;1.90;;;30.20;71.10;;;;;;5074184;28;20209;-60
2021/08/10 11:12:42;;;;;;;5.32;2.30;;;30.20;71.40;;;;;;5073865;28;20211;-59
2021/08/10 11:15:14;;;;;;;4.72;1.85;;;30.20;70.60;;;;;;5073753;28;20669;-59
2021/08/10 11:17:41;;;;;;;7.18;2.78;;;30.30;70.70;;;;;;5073949;28;20204;-60
2021/08/10 11:20:27;;;;;;;4.28;1.90;;;30.30;70.60;;;;;;5073769;28;20205;-60
2021/08/10 11:23:27;;;;;;;3.30;1.75;;;30.20;70.00;;;;;;5074027;28;20215;-59
2021/08/10 11:26:14;;;;;;;5.63;2.92;;;30.00;69.50;;;;;;5073513;28;20212;-59
2021/08/10 11:28:49;;;;;;;4.57;2.00;;;29.80;71.70;;;;;;5073452;28;20213;-59
2021/08/10 11:31:33;;;;;;;2.22;1.58;;;29.90;70.40;;;;;;5073434;28;20301;-57
2021/08/10 11:34:00;;;;;;;3.80;2.25;;;30.10;69.10;;;;;;5073585;28;20207;-57
2021/08/10 11:36:30;;;;;;;4.07;1.90;;;30.30;69.10;;;;;;5073441;28;20710;-59
2021/08/10 11:39:09;;;;;;;6.88;2.40;;;30.50;69.50;;;;;;5073117;28;20209;-58
2021/08/10 11:41:38;;;;;;;5.07;2.47;;;30.50;68.90;;;;;;5073280;28;20248;-59
2021/08/10 11:44:06;;;;;;;4.40;2.13;;;30.60;68.50;;;;;;5073130;28;20225;-59
2021/08/10 11:46:37;;;;;;;5.65;2.30;;;30.60;68.10;;;;;;5072350;28;20266;-59
2021/08/10 11:49:05;;;;;;;7.72;3.20;;;30.70;67.90;;;;;;5073162;28;20201;-59
2021/08/10 11:51:37;;;;;;;5.15;2.03;;;30.60;68.00;;;;;;5073180;28;20236;-58
2021/08/10 11:54:09;;;;;;;4.05;2.58;;;30.70;67.10;;;;;;5072848;28;20676;-59
2021/08/10 11:56:38;;;;;;;3.75;2.15;;;30.90;67.20;;;;;;5072818;28;20789;-59
2021/08/10 11:59:09;;;;;;;3.17;1.80;;;30.90;67.80;;;;;;5073045;28;20205;-59
2021/08/10 12:01:37;;;;;;;5.78;2.20;;;30.60;67.70;;;;;;5073040;28;20331;-58
2021/08/10 12:04:12;;;;;;;3.20;1.75;;;30.50;68.80;;;;;;5072857;28;20220;-58
2021/08/10 12:06:41;;;;;;;4.55;2.30;;;30.60;68.40;;;;;;5073138;28;20266;-58
2021/08/10 12:09:09;;;;;;;5.63;2.50;;;30.70;68.60;;;;;;5073115;28;20204;-57
2021/08/10 12:11:36;;;;;;;5.72;2.42;;;30.70;67.90;;;;;;5072571;28;20739;-58
2021/08/10 12:14:11;;;;;;;4.82;2.13;;;31.10;67.60;;;;;;5072719;28;20196;-61
2021/08/10 12:16:38;;;;;;;4.63;2.30;;;31.40;66.90;;;;;;5072734;28;20679;-61
2021/08/10 12:19:05;;;;;;;5.72;2.58;;;31.80;66.20;;;;;;5072519;28;20209;-60
2021/08/10 12:21:43;;;;;;;3.47;2.28;;;31.80;65.80;;;;;;5072874;28;20221;-61
2021/08/10 12:24:26;;;;;;;7.30;2.20;;;31.90;65.20;;;;;;5072561;28;20221;-61
2021/08/10 12:26:53;;;;;;;6.53;2.53;;;31.40;65.00;;;;;;5072784;28;20243;-59
2021/08/10 12:29:20;;;;;;;6.88;2.78;;;31.00;66.50;;;;;;5073083;28;20239;-60
2021/08/10 12:31:47;;;;;;;4.65;2.72;;;31.10;66.50;;;;;;5072580;28;20239;-59
2021/08/10 12:34:14;;;;;;;4.55;2.80;;;31.50;66.20;;;;;;5072600;28;20212;-61
2021/08/10 12:36:50;;;;;;;4.53;2.08;;;31.60;65.50;;;;;;5072473;28;20209;-60
2021/08/10 12:39:17;;;;;;;4.22;2.03;;;31.60;65.40;;;;;;5072270;28;20227;-60
2021/08/10 12:41:45;;;;;;;4.28;2.15;;;31.50;66.00;;;;;;5071967;28;20229;-56
2021/08/10 12:44:12;;;;;;;3.85;2.00;;;31.20;65.90;;;;;;5072327;28;20228;-56
2021/08/10 12:46:40;;;;;;;3.38;2.00;;;30.90;66.90;;;;;;5072262;28;20295;-56
2021/08/10 12:49:10;;;;;;;4.28;1.80;;;30.60;67.00;;;;;;5072204;28;20236;-56
2021/08/10 12:51:59;;;;;;;2.17;1.65;;;30.40;67.50;;;;;;5072538;28;20233;-56
2021/08/10 12:54:27;;;;;;;5.00;1.90;;;30.30;68.70;;;;;;5072045;28;20208;-56
2021/08/10 12:56:54;;;;;;;3.63;1.90;;;30.30;67.90;;;;;;5072305;28;20209;-55